Time;durP1;ratioP1;P1;durP2;ratioP2;P2;SDS_P1;SDS_P2;PMS_P1;PMS_P2;Temp;Humidity;BMP_temperature;BMP_pressure;BME280_temperature;BME280_humidity;BME280_pressure;Samples;Min_cycle;Max_cycle;Signal;HPM_P1;HPM_P2
2022/07/30 00:00:47;;;;;;;11.70;5.87;;;;;;;16.72;100.00;100998.44;7390946;19;20771;-62
2022/07/30 00:03:17;;;;;;;6.43;3.97;;;;;;;16.82;100.00;100986.47;7384443;19;20762;-60
2022/07/30 00:05:47;;;;;;;17.67;10.80;;;;;;;16.92;100.00;100981.44;7389304;19;20465;-61
2022/07/30 00:08:17;;;;;;;10.63;6.30;;;;;;;17.08;100.00;100967.88;7384541;19;20414;-62
2022/07/30 00:10:49;;;;;;;14.50;9.30;;;;;;;17.22;100.00;100965.53;7391530;19;20394;-59
2022/07/30 00:13:19;;;;;;;13.67;6.10;;;;;;;17.31;100.00;100951.78;7385417;19;20953;-60
2022/07/30 00:15:49;;;;;;;7.03;4.90;;;;;;;17.22;100.00;100949.03;7392689;19;20431;-60
2022/07/30 00:18:18;;;;;;;10.50;6.23;;;;;;;17.15;100.00;100940.19;7390649;19;20424;-62
2022/07/30 00:20:50;;;;;;;17.23;5.90;;;;;;;17.29;100.00;100945.66;7399042;19;20403;-61
2022/07/30 00:23:20;;;;;;;6.63;3.60;;;;;;;17.34;100.00;100943.13;7393583;19;20442;-62
2022/07/30 00:25:52;;;;;;;8.20;3.27;;;;;;;17.06;100.00;100953.94;7397258;19;20406;-60
2022/07/30 00:28:22;;;;;;;7.77;3.40;;;;;;;16.90;100.00;100957.06;7391137;19;20410;-62
2022/07/30 00:30:51;;;;;;;5.93;3.50;;;;;;;16.85;100.00;100970.91;7398652;19;20387;-62
2022/07/30 00:33:24;;;;;;;7.40;3.87;;;;;;;16.76;100.00;100983.75;7392943;19;20426;-60
2022/07/30 00:35:54;;;;;;;6.20;3.30;;;;;;;16.56;100.00;101002.44;7397403;19;20692;-60
2022/07/30 00:38:23;;;;;;;6.47;2.80;;;;;;;16.47;100.00;101021.34;7390631;19;20996;-60
2022/07/30 00:40:57;;;;;;;6.47;4.07;;;;;;;16.65;100.00;101034.75;7397833;19;20738;-61
2022/07/30 00:43:26;;;;;;;5.13;3.23;;;;;;;16.56;100.00;101030.25;7391067;19;20928;-60
2022/07/30 00:45:56;;;;;;;5.97;3.57;;;;;;;16.67;100.00;101025.25;7395916;19;20414;-62
2022/07/30 00:48:25;;;;;;;9.80;3.50;;;;;;;16.70;100.00;101022.69;7391383;19;20413;-60
2022/07/30 00:50:56;;;;;;;5.90;3.27;;;;;;;16.56;100.00;101019.81;7397733;19;20392;-62
2022/07/30 00:53:25;;;;;;;6.03;2.97;;;;;;;16.57;100.00;101032.84;7391895;19;20425;-59
2022/07/30 00:55:57;;;;;;;7.53;3.37;;;;;;;16.45;100.00;101036.09;7396106;19;20410;-60
2022/07/30 00:58:27;;;;;;;7.50;3.07;;;;;;;16.44;100.00;101056.88;7392116;19;20417;-61
2022/07/30 01:00:57;;;;;;;4.93;3.00;;;;;;;16.45;100.00;101063.84;7397707;19;20393;-60
2022/07/30 01:03:26;;;;;;;6.10;3.50;;;;;;;16.45;100.00;101069.03;7391766;19;20534;-61
2022/07/30 01:05:56;;;;;;;11.07;3.87;;;;;;;16.46;100.00;101081.25;7393715;19;20422;-60
2022/07/30 01:08:25;;;;;;;8.00;3.60;;;;;;;16.52;100.00;101064.88;7392775;19;20448;-62
2022/07/30 01:10:57;;;;;;;11.07;3.80;;;;;;;16.53;100.00;101062.31;7397881;19;20407;-61
2022/07/30 01:13:27;;;;;;;8.77;3.93;;;;;;;16.53;100.00;101066.63;7386687;19;20445;-62
2022/07/30 01:15:57;;;;;;;8.57;3.57;;;;;;;16.45;100.00;101069.03;7396218;19;20429;-61
2022/07/30 01:19:47;;;;;;;13.57;3.77;;;;;;;16.38;100.00;101078.47;7390572;19;20420;-62
2022/07/30 01:21:19;;;;;;;8.93;3.77;;;;;;;16.28;100.00;101086.88;7397284;19;20394;-61
2022/07/30 01:23:49;;;;;;;6.30;3.87;;;;;;;16.23;100.00;101110.22;7391556;19;20400;-61
2022/07/30 01:26:22;;;;;;;8.37;4.20;;;;;;;16.35;100.00;101119.16;7396338;19;20423;-61
2022/07/30 01:28:53;;;;;;;9.30;4.30;;;;;;;16.46;100.00;101112.50;7390489;19;20413;-60
2022/07/30 01:31:23;;;;;;;11.83;4.10;;;;;;;16.45;100.00;101106.41;7397239;19;20388;-59
2022/07/30 01:33:53;;;;;;;10.43;3.83;;;;;;;16.51;100.00;101100.44;7390373;19;20409;-60
2022/07/30 01:36:23;;;;;;;8.40;4.13;;;;;;;16.49;100.00;101098.63;7396130;19;20419;-62
2022/07/30 01:38:54;;;;;;;7.27;4.17;;;;;;;16.49;100.00;101096.03;7392903;19;20417;-60
2022/07/30 01:41:27;;;;;;;6.23;4.00;;;;;;;16.55;100.00;101101.38;7397037;19;20719;-58
2022/07/30 01:43:57;;;;;;;5.93;3.67;;;;;;;16.44;100.00;101111.56;7394846;19;20484;-62
2022/07/30 01:46:27;;;;;;;9.80;4.67;;;;;;;16.51;100.00;101105.63;7395862;19;20413;-59
2022/07/30 01:48:57;;;;;;;8.43;4.07;;;;;;;16.59;100.00;101109.31;7396248;19;20421;-60
2022/07/30 01:51:28;;;;;;;8.17;3.93;;;;;;;16.57;100.00;101103.19;7396708;19;20387;-62
2022/07/30 01:54:07;;;;;;;7.50;3.50;;;;;;;16.63;100.00;101102.44;7395097;19;20412;-60
2022/07/30 01:56:40;;;;;;;4.30;3.10;;;;;;;16.76;100.00;101103.59;7389141;19;20426;-61
2022/07/30 01:59:11;;;;;;;9.27;3.80;;;;;;;16.77;100.00;101092.31;7396367;19;20389;-61
2022/07/30 02:01:41;;;;;;;10.87;3.57;;;;;;;16.78;100.00;101083.69;7392750;19;20721;-61
2022/07/30 02:04:11;;;;;;;10.20;3.80;;;;;;;16.73;100.00;101086.16;7395484;19;20401;-62
2022/07/30 02:06:44;;;;;;;5.00;3.23;;;;;;;16.66;100.00;101086.00;7389401;19;20927;-61
2022/07/30 02:09:17;;;;;;;7.10;3.77;;;;;;;16.63;100.00;101085.94;7396247;19;20402;-62
2022/07/30 02:14:41;;;;;;;11.70;4.20;;;;;;;16.38;100.00;101116.63;7395624;19;20382;-59
2022/07/30 02:17:13;;;;;;;5.17;3.50;;;;;;;16.35;100.00;101129.59;7389169;19;20484;-60
2022/07/30 02:19:53;;;;;;;8.03;3.87;;;;;;;16.31;100.00;101145.13;7395748;19;20480;-62
2022/07/30 02:22:25;;;;;;;20.97;3.90;;;;;;;16.28;100.00;101150.25;7381496;19;20432;-60
2022/07/30 02:24:55;;;;;;;9.00;5.00;;;;;;;16.30;100.00;101150.28;7395292;19;20389;-60
2022/07/30 02:27:29;;;;;;;10.90;4.00;;;;;;;16.33;100.00;101147.75;7387999;19;20422;-62
2022/07/30 02:30:02;;;;;;;8.87;3.70;;;;;;;16.30;100.00;101139.84;7395680;19;20950;-61
2022/07/30 02:32:36;;;;;;;7.10;3.40;;;;;;;16.27;100.00;101150.22;7391811;19;20414;-60
2022/07/30 02:35:11;;;;;;;7.90;3.77;;;;;;;16.23;100.00;101149.25;7394884;19;20392;-60
2022/07/30 02:37:41;;;;;;;6.03;3.30;;;;;;;16.26;100.00;101164.09;7387869;19;20431;-61
2022/07/30 02:40:16;;;;;;;8.13;3.60;;;;;;;16.36;100.00;101162.59;7393460;19;20394;-61
2022/07/30 02:42:51;;;;;;;13.03;3.93;;;;;;;16.36;100.00;101163.44;7389027;19;20764;-61
2022/07/30 02:45:22;;;;;;;9.93;3.80;;;;;;;16.48;100.00;101162.88;7393734;19;20451;-60
2022/07/30 02:47:55;;;;;;;9.17;3.67;;;;;;;16.52;100.00;101159.50;7388733;19;20769;-60
2022/07/30 02:50:26;;;;;;;8.73;3.27;;;;;;;16.50;100.00;101158.56;7395231;19;20392;-61
2022/07/30 02:52:56;;;;;;;7.73;3.57;;;;;;;16.46;100.00;101159.38;7388404;19;20420;-61
2022/07/30 02:55:26;;;;;;;6.43;3.20;;;;;;;16.37;100.00;101159.13;7393644;19;20380;-60
2022/07/30 02:57:59;;;;;;;10.23;3.50;;;;;;;16.38;100.00;101166.09;7388666;19;20414;-62
2022/07/30 03:00:30;;;;;;;6.73;3.40;;;;;;;16.33;100.00;101163.38;7394719;19;20391;-62
2022/07/30 03:03:00;;;;;;;4.97;3.20;;;;;;;16.35;100.00;101172.09;7389690;19;20958;-60
2022/07/30 03:05:30;;;;;;;7.70;3.37;;;;;;;16.36;100.00;101165.19;7393066;19;20757;-61
2022/07/30 03:08:01;;;;;;;14.70;3.40;;;;;;;16.32;100.00;101174.66;7388068;19;20434;-60
2022/07/30 03:10:31;;;;;;;9.13;3.00;;;;;;;16.42;100.00;101179.22;7394571;19;20466;-62
2022/07/30 03:13:04;;;;;;;5.20;2.87;;;;;;;16.38;100.00;101180.00;7388984;19;20420;-62
2022/07/30 03:15:36;;;;;;;6.30;3.53;;;;;;;16.38;100.00;101179.09;7392874;19;20386;-60
2022/07/30 03:18:09;;;;;;;5.53;3.03;;;;;;;16.34;100.00;101180.75;7387891;19;20870;-61
2022/07/30 03:20:39;;;;;;;4.60;3.20;;;;;;;16.26;100.00;101183.16;7394288;19;20394;-61
2022/07/30 03:23:10;;;;;;;8.87;3.80;;;;;;;16.27;100.00;101184.94;7387880;19;20417;-61
2022/07/30 03:25:41;;;;;;;9.50;3.40;;;;;;;16.29;100.00;101178.06;7392677;19;20440;-62
2022/07/30 03:28:13;;;;;;;5.73;3.50;;;;;;;16.28;100.00;101176.28;7387325;19;20758;-61
2022/07/30 03:30:43;;;;;;;5.53;3.40;;;;;;;16.23;100.00;101183.09;7393974;19;20391;-62
2022/07/30 03:33:14;;;;;;;4.40;3.10;;;;;;;16.22;100.00;101177.84;7388102;19;20419;-60
2022/07/30 03:35:44;;;;;;;5.20;3.50;;;;;;;16.26;100.00;101188.38;7392399;19;20417;-61
2022/07/30 03:38:14;;;;;;;6.80;3.40;;;;;;;16.25;100.00;101186.63;7385696;19;20424;-61
2022/07/30 03:40:45;;;;;;;8.47;4.10;;;;;;;16.18;100.00;101185.59;7393606;19;20484;-60
2022/07/30 03:43:17;;;;;;;8.23;3.33;;;;;;;16.19;100.00;101191.66;7386716;19;20473;-63
2022/07/30 03:46:03;;;;;;;9.07;3.40;;;;;;;16.21;100.00;101195.22;7391950;19;20421;-62
2022/07/30 03:48:33;;;;;;;4.17;3.20;;;;;;;16.18;100.00;101196.00;7386838;19;20420;-62
2022/07/30 03:51:04;;;;;;;3.80;2.87;;;;;;;16.10;100.00;101196.66;7395768;19;20395;-58
2022/07/30 03:53:34;;;;;;;5.53;3.23;;;;;;;16.06;100.00;101199.16;7400966;19;20412;-59
2022/07/30 03:56:04;;;;;;;5.13;3.40;;;;;;;16.12;100.00;101210.56;7406009;19;20411;-62
2022/07/30 03:58:36;;;;;;;7.53;4.00;;;;;;;16.15;100.00;101202.88;7401464;19;20446;-61
2022/07/30 04:01:06;;;;;;;4.83;2.90;;;;;;;16.10;100.00;101205.31;7407040;19;20391;-60
2022/07/30 04:03:35;;;;;;;5.63;3.67;;;;;;;16.14;100.00;101207.16;7400827;19;20409;-60
2022/07/30 04:06:05;;;;;;;7.23;4.20;;;;;;;16.19;100.00;101212.50;7405384;19;20424;-60
2022/07/30 04:08:35;;;;;;;14.73;8.93;;;;;;;16.38;100.00;101208.66;7400805;19;20412;-61
2022/07/30 04:11:05;;;;;;;19.43;12.63;;;;;;;16.40;100.00;101193.94;7406935;19;20920;-60
2022/07/30 04:13:37;;;;;;;21.10;13.23;;;;;;;16.44;100.00;101189.69;7400013;19;20410;-62
2022/07/30 04:16:12;;;;;;;27.30;18.23;;;;;;;16.43;100.00;101175.78;7405056;19;20417;-62
2022/07/30 04:19:03;;;;;;;12.63;6.77;;;;;;;16.46;100.00;101180.19;7402390;19;20447;-60
2022/07/30 04:21:33;;;;;;;9.30;6.57;;;;;;;16.46;100.00;101180.19;7404385;19;20400;-62
2022/07/30 04:24:03;;;;;;;13.77;8.37;;;;;;;16.62;100.00;101167.53;7406734;19;20393;-60
2022/07/30 04:26:35;;;;;;;15.50;9.23;;;;;;;16.52;100.00;101164.72;7399007;19;20879;-61
2022/07/30 04:29:09;;;;;;;19.50;11.80;;;;;;;16.65;100.00;101163.25;7409247;19;20389;-62
2022/07/30 04:31:47;;;;;;;57.70;33.40;;;;;;;16.84;100.00;101154.16;7400422;19;21255;-60
2022/07/30 04:34:17;;;;;;;17.30;10.43;;;;;;;16.73;100.00;101140.00;7403718;19;20407;-59
2022/07/30 04:36:46;;;;;;;35.67;21.60;;;;;;;16.73;100.00;101140.88;7397688;19;20876;-60
2022/07/30 04:39:16;;;;;;;37.90;21.40;;;;;;;16.81;100.00;101141.03;7405718;19;20469;-62
2022/07/30 04:41:45;;;;;;;23.83;13.07;;;;;;;16.98;100.00;101132.72;7398813;19;20385;-63
2022/07/30 04:44:21;;;;;;;18.07;10.90;;;;;;;16.85;100.00;101116.81;7405353;19;20729;-62
2022/07/30 04:46:51;;;;;;;14.47;8.73;;;;;;;16.76;100.00;101121.81;7396789;19;20745;-62
2022/07/30 04:49:21;;;;;;;24.87;14.73;;;;;;;16.80;100.00;101118.44;7405357;19;20390;-60
2022/07/30 04:51:51;;;;;;;23.90;11.27;;;;;;;16.86;100.00;101113.38;7397321;19;20403;-62
2022/07/30 04:54:22;;;;;;;21.53;14.40;;;;;;;16.87;100.00;101109.06;7408045;19;21109;-62
2022/07/30 04:56:53;;;;;;;15.00;8.73;;;;;;;16.85;100.00;101095.97;7396158;19;20416;-61
2022/07/30 04:59:26;;;;;;;14.00;6.97;;;;;;;16.78;100.00;101099.31;7409593;19;20394;-61
2022/07/30 05:01:57;;;;;;;12.07;6.57;;;;;;;16.80;100.00;101097.59;7396476;19;20419;-59
2022/07/30 05:04:28;;;;;;;11.93;7.37;;;;;;;16.79;100.00;101103.66;7396252;19;20393;-62
2022/07/30 05:06:58;;;;;;;8.00;5.60;;;;;;;16.93;100.00;101090.94;7383637;19;20732;-60
2022/07/30 05:09:29;;;;;;;6.00;4.13;;;;;;;16.84;100.00;101083.81;7394137;19;20760;-61
2022/07/30 05:11:59;;;;;;;4.83;3.80;;;;;;;16.81;100.00;101091.53;7384501;19;20770;-62
2022/07/30 05:14:32;;;;;;;6.67;3.40;;;;;;;16.62;100.00;101100.69;7393446;19;20467;-61
2022/07/30 05:17:01;;;;;;;11.30;3.03;;;;;;;16.48;100.00;101118.59;7385023;19;20437;-62
2022/07/30 05:19:31;;;;;;;6.13;3.10;;;;;;;16.50;100.00;101129.94;7394058;19;20414;-62
2022/07/30 05:22:01;;;;;;;11.13;3.97;;;;;;;16.47;100.00;101140.28;7385404;19;20443;-62
2022/07/30 05:24:35;;;;;;;5.87;3.30;;;;;;;16.40;100.00;101144.47;7394931;19;20420;-61
2022/07/30 05:27:04;;;;;;;3.63;2.50;;;;;;;16.44;100.00;101156.72;7386869;19;20432;-62
2022/07/30 05:29:36;;;;;;;5.67;2.60;;;;;;;16.33;100.00;101146.06;7395621;19;20759;-61
2022/07/30 05:32:09;;;;;;;5.07;2.93;;;;;;;16.34;100.00;101144.31;7386817;19;21206;-58
2022/07/30 05:34:39;;;;;;;5.50;3.33;;;;;;;16.37;100.00;101149.59;7394177;19;20777;-59
2022/07/30 05:37:08;;;;;;;7.80;3.43;;;;;;;16.35;100.00;101148.66;7385226;19;20961;-63
2022/07/30 05:39:40;;;;;;;8.33;3.37;;;;;;;16.41;100.00;101153.16;7394665;19;20369;-62
2022/07/30 05:42:30;;;;;;;14.50;6.83;;;;;;;16.35;100.00;101145.22;7387105;19;20401;-61
2022/07/30 05:45:02;;;;;;;6.50;3.10;;;;;;;16.27;100.00;101138.09;7394644;19;20469;-58
2022/07/30 05:47:32;;;;;;;14.83;9.40;;;;;;;16.35;100.00;101142.59;7386255;19;20439;-60
2022/07/30 05:50:01;;;;;;;23.93;12.20;;;;;;;16.36;100.00;101146.97;7395319;19;20385;-61
2022/07/30 05:52:34;;;;;;;14.30;8.43;;;;;;;16.41;100.00;101151.41;7389385;19;20424;-62
2022/07/30 05:55:03;;;;;;;3.63;2.60;;;;;;;16.27;100.00;101140.69;7397569;19;20394;-61
2022/07/30 05:57:33;;;;;;;18.50;9.93;;;;;;;16.28;100.00;101158.06;7387998;19;20405;-61
2022/07/30 06:00:06;;;;;;;12.33;6.90;;;;;;;16.29;100.00;101161.53;7395840;19;20405;-61
2022/07/30 06:02:40;;;;;;;10.47;6.70;;;;;;;16.30;100.00;101169.41;7389010;19;20480;-60
2022/07/30 06:05:11;;;;;;;8.93;3.07;;;;;;;16.22;100.00;101168.34;7395503;19;20408;-62
2022/07/30 06:07:40;;;;;;;4.37;3.53;;;;;;;16.22;100.00;101176.16;7389620;19;20440;-59
2022/07/30 06:10:10;;;;;;;6.00;3.37;;;;;;;16.27;100.00;101173.66;7395741;19;20389;-61
2022/07/30 06:12:41;;;;;;;4.70;2.87;;;;;;;16.23;100.00;101166.59;7386465;19;20412;-62
2022/07/30 06:15:13;;;;;;;5.70;2.93;;;;;;;16.26;100.00;101177.97;7392244;19;20388;-62
2022/07/30 06:17:45;;;;;;;10.53;4.00;;;;;;;16.53;100.00;101165.59;7389417;19;20448;-60
2022/07/30 06:20:30;;;;;;;18.03;6.60;;;;;;;16.76;100.00;101147.88;7396027;19;20386;-62
2022/07/30 06:23:00;;;;;;;9.10;3.57;;;;;;;16.75;100.00;101125.28;7387505;19;20493;-59
2022/07/30 06:25:29;;;;;;;3.47;2.93;;;;;;;16.64;100.00;101121.53;7394755;19;20407;-60
2022/07/30 06:27:59;;;;;;;6.33;2.93;;;;;;;16.55;100.00;101133.53;7386521;19;20427;-59
2022/07/30 06:30:51;;;;;;;4.90;2.83;;;;;;;16.50;100.00;101142.94;7395349;19;20394;-61
2022/07/30 06:33:20;;;;;;;4.40;2.87;;;;;;;16.51;100.00;101151.66;7389437;19;20590;-62
2022/07/30 06:35:50;;;;;;;5.60;3.27;;;;;;;16.51;100.00;101147.31;7394172;19;20414;-60
2022/07/30 06:38:19;;;;;;;5.00;3.00;;;;;;;16.53;100.00;101150.84;7386893;19;20425;-61
2022/07/30 06:40:49;;;;;;;3.93;2.83;;;;;;;16.55;100.00;101146.53;7395052;19;20390;-60
2022/07/30 06:43:20;;;;;;;7.20;3.40;;;;;;;16.58;100.00;101137.94;7387488;19;20421;-62
2022/07/30 06:45:52;;;;;;;11.03;3.07;;;;;;;16.56;100.00;101130.06;7393733;19;20412;-60
2022/07/30 06:48:21;;;;;;;6.70;3.20;;;;;;;16.52;100.00;101146.50;7386290;19;20452;-60
2022/07/30 06:50:51;;;;;;;9.17;3.70;;;;;;;16.55;100.00;101148.25;7394633;19;21027;-61
2022/07/30 06:53:20;;;;;;;10.13;2.93;;;;;;;16.62;100.00;101142.38;7386902;19;20821;-62
2022/07/30 06:55:50;;;;;;;5.90;3.47;;;;;;;16.61;100.00;101137.97;7393543;19;20928;-61
2022/07/30 06:58:26;;;;;;;6.00;3.13;;;;;;;16.62;100.00;101138.88;7386318;19;20457;-62
2022/07/30 07:00:58;;;;;;;6.07;3.13;;;;;;;16.71;100.00;101126.94;7394377;19;20397;-60
2022/07/30 07:03:28;;;;;;;5.37;2.80;;;;;;;16.70;100.00;101116.47;7385726;19;20747;-63
2022/07/30 07:06:08;;;;;;;6.07;2.60;;;;;;;16.68;100.00;101124.28;7397103;19;20460;-62
2022/07/30 07:08:38;;;;;;;5.87;4.07;;;;;;;16.55;100.00;101135.22;7383999;19;20452;-62
2022/07/30 07:11:08;;;;;;;9.43;3.20;;;;;;;16.57;100.00;101149.19;7394166;19;20956;-59
2022/07/30 07:13:38;;;;;;;8.80;3.50;;;;;;;16.57;100.00;101149.19;7387080;19;20460;-61
2022/07/30 07:16:10;;;;;;;5.20;2.93;;;;;;;16.63;100.00;101161.47;7392377;19;20411;-62
2022/07/30 07:18:40;;;;;;;9.17;4.40;;;;;;;16.57;100.00;101160.47;7387026;19;20447;-62
2022/07/30 07:21:09;;;;;;;6.60;4.83;;;;;;;16.56;100.00;101166.53;7393804;19;20386;-61
2022/07/30 07:23:39;;;;;;;6.10;3.23;;;;;;;16.52;100.00;101175.13;7386553;19;20421;-62
2022/07/30 07:26:12;;;;;;;6.63;3.30;;;;;;;16.47;100.00;101176.75;7390987;19;20968;-62
2022/07/30 07:28:41;;;;;;;6.53;3.23;;;;;;;16.45;100.00;101184.50;7385316;19;20439;-59
2022/07/30 07:31:13;;;;;;;13.80;4.57;;;;;;;16.47;100.00;101193.22;7393458;19;20400;-61
2022/07/30 07:34:03;;;;;;;12.70;5.47;;;;;;;16.53;100.00;101183.81;7391751;19;20405;-60
2022/07/30 07:36:34;;;;;;;5.83;3.77;;;;;;;16.61;100.00;101171.84;7384143;19;20830;-60
2022/07/30 07:39:08;;;;;;;9.80;3.70;;;;;;;16.66;100.00;101169.38;7392998;19;20719;-60
2022/07/30 07:41:41;;;;;;;6.43;2.90;;;;;;;16.69;100.00;101172.94;7386275;19;20414;-62
2022/07/30 07:44:17;;;;;;;7.70;3.30;;;;;;;16.74;100.00;101165.22;7393938;19;20401;-60
2022/07/30 07:46:49;;;;;;;4.70;3.27;;;;;;;16.71;100.00;101167.72;7384180;19;20956;-62
2022/07/30 07:49:19;;;;;;;5.97;3.43;;;;;;;16.78;100.00;101155.72;7391591;19;20405;-60
2022/07/30 07:51:48;;;;;;;5.67;3.37;;;;;;;16.84;100.00;101151.56;7385632;19;20420;-62
2022/07/30 07:54:19;;;;;;;7.60;4.00;;;;;;;16.92;100.00;101148.22;7391914;19;20911;-62
2022/07/30 07:56:54;;;;;;;6.87;3.53;;;;;;;16.98;100.00;101145.75;7384340;19;20833;-63
2022/07/30 07:59:25;;;;;;;4.70;3.43;;;;;;;17.05;100.00;101145.06;7393127;19;20387;-61
2022/07/30 08:02:11;;;;;;;6.53;3.30;;;;;;;17.11;100.00;101136.47;7384917;19;20439;-61
2022/07/30 08:04:41;;;;;;;4.97;3.30;;;;;;;17.09;100.00;101106.91;7391782;19;20397;-63
2022/07/30 08:07:10;;;;;;;10.30;4.33;;;;;;;17.13;100.00;101107.00;7384903;19;20477;-62
2022/07/30 08:09:41;;;;;;;18.30;6.60;;;;;;;17.17;100.00;101091.44;7390763;19;20388;-59
2022/07/30 08:12:13;;;;;;;14.53;5.50;;;;;;;17.21;100.00;101088.00;7385358;19;20407;-62
2022/07/30 08:14:43;;;;;;;12.37;5.70;;;;;;;17.28;100.00;101067.31;7391569;19;20917;-59
2022/07/30 08:17:15;;;;;;;6.70;3.47;;;;;;;17.32;100.00;101060.44;7386923;19;20417;-62
2022/07/30 08:19:45;;;;;;;10.27;4.57;;;;;;;17.37;100.00;101048.34;7396474;19;20401;-61
2022/07/30 08:22:14;;;;;;;7.80;4.23;;;;;;;17.41;100.00;101038.84;7384663;19;20418;-63
2022/07/30 08:24:44;;;;;;;14.30;5.60;;;;;;;17.51;100.00;101032.06;7395073;19;20407;-62
2022/07/30 08:27:13;;;;;;;24.23;7.67;;;;;;;17.58;100.00;101023.50;7382952;19;20415;-62
2022/07/30 08:29:43;;;;;;;9.67;3.60;;;;;;;17.60;100.00;101019.19;7390162;19;20386;-60
2022/07/30 08:32:15;;;;;;;5.00;3.23;;;;;;;17.63;100.00;101010.53;7383894;19;20428;-62
2022/07/30 08:34:45;;;;;;;21.20;8.20;;;;;;;17.72;100.00;101007.19;7390297;19;20736;-62
2022/07/30 08:37:15;;;;;;;39.73;13.43;;;;;;;17.83;100.00;101004.78;7381574;19;20417;-62
2022/07/30 08:39:44;;;;;;;20.80;7.83;;;;;;;17.84;100.00;100999.56;7398078;19;20391;-62
2022/07/30 08:42:15;;;;;;;9.13;4.10;;;;;;;17.87;100.00;100997.00;7390075;19;20510;-62
2022/07/30 08:44:46;;;;;;;22.13;9.57;;;;;;;17.87;100.00;100991.78;7398609;19;20405;-59
2022/07/30 08:47:20;;;;;;;48.20;15.13;;;;;;;17.92;100.00;100997.97;7390660;19;20413;-61
2022/07/30 08:49:51;;;;;;;12.03;4.17;;;;;;;18.00;100.00;101003.28;7396831;19;20386;-62
2022/07/30 08:52:21;;;;;;;7.20;4.30;;;;;;;18.06;100.00;101002.53;7390547;19;21128;-61
2022/07/30 08:54:51;;;;;;;11.67;4.17;;;;;;;18.10;100.00;101003.47;7397864;19;20391;-62
2022/07/30 08:57:23;;;;;;;11.30;3.80;;;;;;;18.12;100.00;101007.84;7390070;19;20419;-61
2022/07/30 08:59:53;;;;;;;19.63;7.23;;;;;;;18.21;100.00;101005.34;7398757;19;20387;-60
2022/07/30 09:02:33;;;;;;;7.20;3.57;;;;;;;18.38;100.00;100999.50;7388151;19;20490;-59
2022/07/30 09:05:02;;;;;;;9.40;4.20;;;;;;;18.31;100.00;100989.84;7396385;19;20390;-60
2022/07/30 09:07:45;;;;;;;6.77;4.00;;;;;;;18.22;100.00;100986.22;7387833;19;20789;-60
2022/07/30 09:10:16;;;;;;;8.90;3.70;;;;;;;18.17;100.00;100985.31;7392534;19;20379;-60
2022/07/30 09:12:46;;;;;;;6.93;4.43;;;;;;;18.14;100.00;100981.78;7386374;19;20478;-58
2022/07/30 09:15:19;;;;;;;8.77;4.00;;;;;;;18.19;100.00;100983.59;7396129;19;20380;-60
2022/07/30 09:17:56;;;;;;;7.67;4.03;;;;;;;18.33;100.00;100975.06;7387688;19;20457;-62
2022/07/30 09:20:27;;;;;;;10.90;6.87;;;;;;;18.39;100.00;100987.28;7397078;19;20732;-61
2022/07/30 09:22:59;;;;;;;9.17;3.90;;;;;;;18.41;100.00;100988.22;7388710;19;20415;-62
2022/07/30 09:25:36;;;;;;;7.73;3.80;;;;;;;18.44;100.00;100988.25;7395674;19;20398;-60
2022/07/30 09:28:08;;;;;;;6.47;3.83;;;;;;;18.41;100.00;100994.31;7388267;19;20433;-62
2022/07/30 09:30:49;;;;;;;8.87;4.03;;;;;;;18.47;100.00;101006.59;7396486;19;20733;-57
2022/07/30 09:33:35;;;;;;;6.80;3.97;;;;;;;18.52;100.00;101017.09;7388324;19;20419;-60
2022/07/30 09:36:06;;;;;;;9.17;3.80;;;;;;;18.54;100.00;101023.19;7392411;19;20437;-61
2022/07/30 09:38:47;;;;;;;9.03;4.40;;;;;;;18.53;100.00;101029.28;7391043;19;20997;-55
2022/07/30 09:41:18;;;;;;;12.97;4.27;;;;;;;18.53;100.00;101034.50;7394469;19;20434;-62
2022/07/30 09:44:07;;;;;;;10.87;4.33;;;;;;;18.57;100.00;101038.94;7398334;19;20526;-59
2022/07/30 09:46:46;;;;;;;6.17;3.90;;;;;;;18.57;100.00;101041.53;7392378;19;20448;-56
2022/07/30 09:49:20;;;;;;;17.07;8.80;;;;;;;18.63;100.00;101046.84;7396431;19;20516;-60
2022/07/30 09:51:50;;;;;;;7.03;4.13;;;;;;;18.74;100.00;101045.25;7393171;19;20411;-60
2022/07/30 09:54:25;;;;;;;11.70;4.97;;;;;;;18.87;100.00;101050.63;7398985;19;20926;-60
2022/07/30 09:57:08;;;;;;;8.53;5.40;;;;;;;18.99;100.00;100985.41;7390279;19;20411;-61
2022/07/30 09:59:54;;;;;;;9.33;5.00;;;;;;;19.10;100.00;100963.75;7399817;19;20483;-62
2022/07/30 10:02:31;;;;;;;15.97;7.97;;;;;;;19.35;100.00;100962.25;7389834;19;20447;-58
2022/07/30 10:05:18;;;;;;;39.50;21.93;;;;;;;19.37;100.00;100954.38;7395814;19;20391;-62
2022/07/30 10:07:53;;;;;;;8.77;3.70;;;;;;;19.37;100.00;100960.50;7388208;19;20418;-62
2022/07/30 10:10:24;;;;;;;28.97;16.30;;;;;;;19.33;100.00;100965.72;7394524;19;20387;-60
2022/07/30 10:12:56;;;;;;;8.73;4.17;;;;;;;19.46;100.00;100964.06;7389427;19;20415;-62
2022/07/30 10:15:31;;;;;;;10.90;5.50;;;;;;;19.62;100.00;100963.31;7397259;19;20930;-61
2022/07/30 10:18:01;;;;;;;8.67;4.60;;;;;;;19.76;100.00;100954.69;7389213;19;20514;-61
2022/07/30 10:20:38;;;;;;;20.73;11.53;;;;;;;19.68;100.00;100966.00;7396748;19;20902;-59
2022/07/30 10:23:09;;;;;;;33.17;16.50;;;;;;;19.82;100.00;100959.97;7390976;19;20822;-57
2022/07/30 10:25:45;;;;;;;12.40;7.83;;;;;;;19.77;100.00;100961.69;7398173;19;20868;-62
2022/07/30 10:28:18;;;;;;;6.97;4.83;;;;;;;19.71;100.00;100967.75;7389424;19;20990;-60
2022/07/30 10:30:51;;;;;;;11.97;6.40;;;;;;;19.72;100.00;100972.13;7397080;19;20388;-60
2022/07/30 10:33:23;;;;;;;19.20;12.83;;;;;;;19.81;100.00;100966.97;7387421;19;20925;-61
2022/07/30 10:36:09;;;;;;;61.33;33.80;;;;;;;19.67;100.00;100965.97;7393889;19;20453;-59
2022/07/30 10:38:41;;;;;;;7.30;4.30;;;;;;;19.62;100.00;100954.59;7386329;19;20419;-59
2022/07/30 10:41:17;;;;;;;5.57;3.87;;;;;;;19.74;100.00;100946.81;7395941;19;20368;-62
2022/07/30 10:44:45;;;;;;;7.47;3.43;;;;;;;19.74;100.00;100941.59;7393701;19;20419;-61
2022/07/30 10:47:17;;;;;;;77.50;38.33;;;;;;;19.73;100.00;100939.84;7384335;19;20421;-62
2022/07/30 10:50:08;;;;;;;12.93;5.77;;;;;;;19.75;100.00;100947.72;7395896;19;20419;-61
2022/07/30 10:52:52;;;;;;;13.50;8.53;;;;;;;19.73;100.00;100944.22;7388661;19;20454;-61
2022/07/30 10:55:23;;;;;;;9.50;5.27;;;;;;;19.79;100.00;100942.50;7393812;19;20390;-62
2022/07/30 10:58:08;;;;;;;19.30;10.20;;;;;;;19.83;100.00;100936.44;7384625;19;20419;-59
2022/07/30 11:01:04;;;;;;;31.43;18.33;;;;;;;19.81;100.00;100942.50;7392660;19;20462;-63
2022/07/30 11:04:19;;;;;;;9.47;4.40;;;;;;;19.78;100.00;100943.38;7390717;19;20450;-60
2022/07/30 11:06:49;;;;;;;21.60;11.57;;;;;;;19.86;100.00;100945.16;7385868;19;20491;-61
2022/07/30 11:09:45;;;;;;;11.37;6.23;;;;;;;20.03;100.00;100940.94;7394175;19;20911;-61
2022/07/30 11:12:54;;;;;;;8.93;4.30;;;;;;;20.18;100.00;100955.84;7384437;19;20765;-63
2022/07/30 11:15:24;;;;;;;7.50;3.80;;;;;;;20.29;100.00;100955.91;7393063;19;20391;-62
2022/07/30 11:18:13;;;;;;;10.73;6.17;;;;;;;20.13;100.00;100961.91;7386475;19;20411;-62
2022/07/30 11:20:43;;;;;;;11.70;6.30;;;;;;;20.08;100.00;100947.06;7393867;19;20394;-62
2022/07/30 11:23:39;;;;;;;6.47;4.00;;;;;;;19.99;100.00;100954.88;7388592;19;20449;-59
2022/07/30 11:26:09;;;;;;;5.53;3.43;;;;;;;20.07;100.00;100952.28;7394793;19;20427;-62
2022/07/30 11:28:45;;;;;;;9.83;4.20;;;;;;;20.13;100.00;100957.56;7386894;19;20856;-61
2022/07/30 11:31:33;;;;;;;6.60;4.23;;;;;;;20.27;100.00;100962.88;7392288;19;20395;-61
2022/07/30 11:34:29;;;;;;;13.67;5.17;;;;;;;20.35;100.00;100983.84;7392970;19;20984;-59
2022/07/30 11:37:13;;;;;;;9.50;4.53;;;;;;;20.48;100.00;100990.03;7382551;19;20417;-60
2022/07/30 11:40:09;;;;;;;10.70;4.47;;;;;;;20.71;100.00;100991.88;7393590;19;20403;-60
2022/07/30 11:42:41;;;;;;;8.60;5.33;;;;;;;20.71;100.00;101005.00;7384594;19;20411;-61
2022/07/30 11:45:25;;;;;;;8.30;3.60;;;;;;;20.75;100.00;100996.25;7392826;19;21012;-60